Flight Track Log - Related Links

Times and Time Zones

All times are in EDT time to prevent confusion due to time zone crossing. See the N45DJ flight status page for this flight to view local times or setup timezone preferences in your user account.

Time Position Orientation Groundspeed Altitude Reporting Facility
EDT Latitude Longitude Course Direction KTS MPH feet Rate Location/Type
Thu 07:32:00 AM 34.7731 -85.2000 180° South  Level FlightAware
Thu 07:33:00 AM 34.7297 -85.2000 180° South  Level FlightAware
Thu 07:34:00 AM 34.6864 -85.2000 180° South  Level FlightAware
Thu 07:36:00 AM 34.6071 -85.1678 148° Southeast  Level FlightAware
Thu 07:37:00 AM 34.5714 -85.1381 141° Southeast  Level FlightAware
Thu 07:38:00 AM 34.5295 -85.1333 180° South  Level FlightAware
Thu 07:39:00 AM 34.4861 -85.1333 180° South  Level FlightAware
Thu 07:40:00 AM 34.4432 -85.1413 189° South  Level FlightAware
Thu 07:41:00 AM 34.4005 -85.1499 189° South  Level FlightAware
Thu 07:42:00 AM 34.3571 -85.1500 180° South  Level FlightAware
Thu 07:43:00 AM 34.3508 -85.1587 180° South  Level Estimated
Thu 07:44:00 AM 34.3500 -85.1500 180° South  Level FlightAware
Thu 07:45:00 AM 34.3508 -85.1587 North  Level Estimated
Thu 07:46:00 AM 34.3500 -85.1500 180° South  Level FlightAware
Thu 07:47:00 AM 34.3508 -85.1587 North  Level Estimated
Thu 07:48:00 AM 34.3500 -85.1500 180° South  Level FlightAware
Thu 07:49:00 AM 34.3508 -85.1587 North  Level Estimated
Thu 07:50:00 AM 34.3500 -85.1500 180° South  Level FlightAware
Thu 07:51:00 AM 34.3508 -85.1587 North  Level Estimated
Thu 07:52:00 AM 34.3500 -85.1500 180° South  Level FlightAware
Thu 07:53:00 AM 34.3508 -85.1587 North  Level Estimated
Thu 07:54:00 AM 34.3500 -85.1500 180° South  Level FlightAware
Thu 07:55:00 AM 34.3508 -85.1587 North  Level Estimated
Thu 07:56:00 AM 34.3500 -85.1500 180° South  Level FlightAware
Thu 07:57:00 AM 34.3508 -85.1587 North  Level Estimated

Login

Don't have an account? Register now (free) for customized features, flight alerts, and more!